Terminal Aerodrome Forecast
Issued by NWS Wilmington, OH

Current Version | Previous Version | Graphics & Text | Print | Product List | Glossary On
Versions: 1 2 3 4 5 6 7 8 9 10 11 12 13 14 15 16 17 18 19 20 21 22 23 24 25 26 27
394
FTUS41 KILN 201720
TAFCVG
TAF
KCVG 201720Z 2018/2124 18005KT P6SM FEW060 SCT150
     FM210000 14003KT P6SM FEW250
     FM211400 19005KT P6SM FEW050=

USA.gov is the U.S. government's official web portal to all federal, state and local government web resources and services.